• Join FlightAware (Why Join?)
  • Login
  • US Flag 
12:27PM EDT


 

Airport Tracker/Info


-or-


 

Live Flight TrackerFlight Track Log ✈ SWA411 ✈ 07-Oct-2013 ✈ KIND - KPHX

Flight Track Log - Related Links

Times and Time Zones

All times are in EDT time to prevent confusion due to time zone crossing. See the SWA411 flight status page for this flight to view local times or setup timezone preferences in your user account.

Time Position Orientation Groundspeed Altitude Reporting Facility
EDT Latitude Longitude Course Direction KTS MPH feet Rate Location/Type
08:24AM 39.7000 -86.3167 218° Southwest 150 173 1,600  Level Indianapolis TRACON
08:24AM 39.6833 -86.3333 218° Southwest 155 178 2,400 1,980 Climbing Indianapolis TRACON
08:25AM 39.6500 -86.3667 218° Southwest 219 252 4,400 1,860 Climbing Indianapolis TRACON
08:26AM 39.6367 -86.4033 245° Southwest 221 254 5,100 2,640 Climbing Indianapolis Center
08:27AM 39.6208 -86.5067 259° West 242 278 8,600 3,240 Climbing Indianapolis Center
08:28AM 39.6022 -86.5972 255° West 255 293 11,900 2,700 Climbing Indianapolis Center
08:29AM 39.5850 -86.7075 259° West 306 352 14,200 2,340 Climbing Indianapolis Center
08:30AM 39.5622 -86.8286 256° West 338 389 16,800 2,700 Climbing Indianapolis Center
08:31AM 39.5400 -86.9572 257° West 360 414 19,800 2,700 Climbing Indianapolis Center
08:32AM 39.5183 -87.0864 258° West 367 422 22,400 2,220 Climbing Indianapolis Center
08:33AM 39.4939 -87.2206 257° West 380 437 24,400 1,800 Climbing Indianapolis Center
08:34AM 39.4967 -87.3589 272° West 387 445 26,200 1,920 Climbing Indianapolis Center
08:35AM 39.5022 -87.5303 272° West 398 458 28,400 1,980 Climbing Indianapolis Center
08:36AM 39.4994 -87.6761 269° West 407 468 30,300 1,740 Climbing Indianapolis Center
08:37AM 39.4972 -87.8206 269° West 405 466 32,000 1,560 Climbing Indianapolis Center
08:38AM 39.4936 -87.9669 268° West 406 467 33,500 960 Climbing Indianapolis Center
08:39AM 39.4908 -88.1139 269° West 410 472 34,000 240 Climbing Indianapolis Center
08:40AM 39.4903 -88.2206 270° West 408 470 34,000 840 Level Kansas City Center
08:41AM 39.4872 -88.3661 268° West 406 467 35,500 1,320 Climbing Kansas City Center
08:42AM 39.4844 -88.5108 269° West 405 466 36,700 1,020 Climbing Kansas City Center
08:43AM 39.4814 -88.6517 268° West 409 471 37,700 600 Climbing Kansas City Center
08:44AM 39.4769 -88.8297 268° West 411 473 38,000 120 Climbing Kansas City Center
08:45AM 39.4725 -88.9761 268° West 409 471 38,000  Level Kansas City Center
08:46AM 39.4689 -89.1244 268° West 410 472 38,000  Level Kansas City Center
08:47AM 39.4650 -89.2717 268° West 410 472 38,000  Level Kansas City Center
08:48AM 39.4611 -89.4097 268° West 410 472 38,000  Level Kansas City Center
08:49AM 39.4569 -89.5578 268° West 412 474 38,000  Level Kansas City Center
08:50AM 39.4506 -89.7356 267° West 414 476 38,000  Level Kansas City Center
08:51AM 39.4461 -89.8844 268° West 416 479 38,000  Level Kansas City Center
08:52AM 39.4414 -90.0336 268° West 417 480 38,000  Level Kansas City Center
08:53AM 39.4361 -90.1822 267° West 417 480 38,000  Level Kansas City Center
08:54AM 39.4303 -90.3322 267° West 419 482 38,000  Level Kansas City Center
08:55AM 39.4247 -90.4825 267° West 421 484 38,000  Level Kansas City Center
08:56AM 39.4194 -90.6317 267° West 420 483 38,000  Level Kansas City Center
08:57AM 39.4119 -90.8106 267° West 419 482 38,000  Level Kansas City Center
08:58AM 39.4047 -90.9586 266° West 416 479 38,000  Level Kansas City Center
08:59AM 39.3986 -91.1083 267° West 419 482 38,000  Level Kansas City Center
09:00AM 39.3903 -91.2578 266° West 418 481 38,000  Level Kansas City Center
09:01AM 39.3839 -91.4056 267° West 417 480 38,000  Level Kansas City Center
09:02AM 39.3769 -91.5533 267° West 415 478 38,000  Level Kansas City Center
09:03AM 39.3692 -91.7156 267° West 412 474 38,000  Level Kansas City Center
09:04AM 39.3619 -91.8631 266° West 412 474 38,000  Level Kansas City Center
09:05AM 39.3539 -92.0117 266° West 415 478 38,000  Level Kansas City Center
09:06AM 39.3469 -92.1592 267° West 414 476 38,000  Level Kansas City Center
09:07AM 39.3386 -92.3094 266° West 417 480 38,000  Level Kansas City Center
09:09AM 39.3300 -92.4592 266° West 419 482 38,000  Level Kansas City Center
09:10AM 39.3203 -92.6419 266° West 422 486 38,000  Level Kansas City Center
09:11AM 39.3103 -92.7925 265° West 423 487 38,000  Level Kansas City Center
09:12AM 39.3022 -92.9433 266° West 423 487 38,000  Level Kansas City Center
09:13AM 39.2931 -93.0939 266° West 424 488 38,000  Level Kansas City Center
09:14AM 39.2833 -93.2433 265° West 421 484 38,000  Level Kansas City Center
09:15AM 39.2742 -93.3944 266° West 424 488 38,000  Level Kansas City Center
09:16AM 39.2633 -93.5583 265° West 418 481 38,000  Level Kansas City Center
09:17AM 39.2547 -93.7028 266° West 421 484 38,000  Level Kansas City Center
09:18AM 39.2422 -93.8719 265° West 424 488 38,000  Level Kansas City Center
09:19AM 39.2331 -94.0167 265° West 423 487 38,000  Level Kansas City Center
09:20AM 39.2211 -94.1867 265° West 426 490 38,000  Level Kansas City Center
09:21AM 39.2103 -94.3325 265° West 426 490 38,000  Level Kansas City Center
09:22AM 39.1994 -94.4772 265° West 424 488 38,000  Level Kansas City Center
09:23AM 39.1864 -94.6464 264° West 424 488 38,000  Level Kansas City Center
09:24AM 39.1753 -94.7933 264° West 429 494 38,000  Level Kansas City Center
09:25AM 39.1625 -94.9622 264° West 424 488 38,000  Level Kansas City Center
09:26AM 39.1506 -95.1067 264° West 421 484 38,000  Level Kansas City Center
09:27AM 39.1378 -95.2669 264° West 427 491 38,000  Level Kansas City Center
09:28AM 39.1253 -95.4286 264° West 424 488 38,000  Level Kansas City Center
09:29AM 39.1131 -95.5739 264° West 423 487 38,000  Level Kansas City Center
09:30AM 39.0858 -95.7147 256° West 425 489 38,000  Level Kansas City Center
09:31AM 39.0472 -95.8775 253° West 427 491 38,000  Level Kansas City Center
09:32AM 39.0142 -96.0169 253° West 426 490 38,000  Level Kansas City Center
09:33AM 38.9808 -96.1575 253° West 429 494 38,000  Level Kansas City Center
09:34AM 38.9411 -96.3206 253° West 429 494 38,000  Level Kansas City Center
09:35AM 38.9072 -96.4597 253° West 428 493 38,000  Level Kansas City Center
09:36AM 38.8694 -96.6119 252° West 430 495 38,000  Level Kansas City Center
09:37AM 38.8344 -96.7583 253° West 430 495 38,000  Level Kansas City Center
09:38AM 38.7986 -96.9036 252° West 429 494 38,000  Level Kansas City Center
09:39AM 38.7636 -97.0483 253° West 427 491 38,000  Level Kansas City Center
09:40AM 38.7214 -97.2197 253° West 423 487 38,000  Level Kansas City Center
09:41AM 38.6858 -97.3614 252° West 420 483 38,000  Level Kansas City Center
09:42AM 38.6506 -97.5022 252° West 418 481 38,000  Level Kansas City Center
09:43AM 38.6142 -97.6422 252° West 415 478 38,000  Level Kansas City Center
09:44AM 38.5786 -97.7825 252° West 417 480 38,000  Level Kansas City Center
09:45AM 38.5431 -97.9228 252° West 418 481 38,000  Level Kansas City Center
09:46AM 38.5056 -98.0667 252° West 419 482 38,000  Level Kansas City Center
09:47AM 38.4628 -98.2322 252° West 422 486 38,000  Level Kansas City Center
09:49AM 38.4256 -98.3733 251° West 422 486 38,000  Level Kansas City Center
09:50AM 38.3883 -98.5161 252° West 427 491 38,000  Level Kansas City Center
09:51AM 38.3508 -98.6567 251° West 422 486 38,000  Level Kansas City Center
09:52AM 38.3136 -98.7986 252° West 423 487 38,000  Level Kansas City Center
09:53AM 38.2753 -98.9386 251° West 421 484 38,000  Level Kansas City Center
09:54AM 38.2319 -99.1058 252° West 419 482 38,000  Level Kansas City Center
09:55AM 38.1933 -99.2439 250° West 417 480 38,000  Level Kansas City Center
09:56AM 38.1558 -99.3811 251° West 414 476 38,000  Level Kansas City Center
09:57AM 38.1175 -99.5194 251° West 411 473 38,000  Level Kansas City Center
09:58AM 38.0744 -99.6728 250° West 411 473 38,000  Level Kansas City Center
09:59AM 38.0389 -99.8036 251° West 411 473 38,000  Level Kansas City Center
10:00AM 37.9967 -99.9572 251° West 413 475 38,000  Level Kansas City Center
10:01AM 37.9589 -100.0894 250° West 415 478 38,000  Level Kansas City Center
10:02AM 37.9225 -100.2222 251° West 417 480 38,000  Level Kansas City Center
10:03AM 37.8786 -100.3761 250° West 416 479 38,000  Level Kansas City Center
10:04AM 37.8414 -100.5072 250° West 416 479 38,000  Level Kansas City Center
10:05AM 37.7978 -100.6603 250° West 415 478 38,000  Level Kansas City Center
10:06AM 37.7642 -100.7811 251° West 412 474 38,000  Level Kansas City Center
10:07AM 37.7156 -100.9464 250° West 416 479 38,000  Level Kansas City Center
10:08AM 37.6747 -101.0842 250° West 418 481 38,000  Level Kansas City Center
10:09AM 37.6356 -101.2183 250° West 413 475 38,000  Level Kansas City Center
10:10AM 37.5975 -101.3489 250° West 414 476 38,000  Level Kansas City Center
10:11AM 37.5528 -101.5031 250° West 418 481 38,000  Level Kansas City Center
10:12AM 37.5122 -101.6344 249° West 420 483 38,000  Level Kansas City Center
10:13AM 37.4664 -101.7886 250° West 420 483 38,000  Level Kansas City Center
10:14AM 37.4281 -101.9206 250° West 421 484 38,000  Level Kansas City Center
10:15AM 37.3803 -102.0747 249° West 422 486 38,000  Level Kansas City Center
10:16AM 37.3411 -102.2047 249° West 419 482 38,000  Level Kansas City Center
10:17AM 37.2950 -102.3569 249° West 417 480 38,000  Level Kansas City Center
10:18AM 37.2542 -102.4908 249° West 420 483 38,000  Level Albuquerque Center
10:19AM 37.2150 -102.6206 249° West 418 481 38,000  Level Albuquerque Center
10:20AM 37.1683 -102.7772 250° West 424 488 38,000  Level Albuquerque Center
10:21AM 37.1250 -102.9119 248° West 431 496 38,000  Level Albuquerque Center
10:22AM 37.0836 -103.0475 249° West 434 499 38,000  Level Albuquerque Center
10:23AM 37.0342 -103.2039 248° West 433 498 38,000  Level Albuquerque Center
10:25AM 36.9919 -103.3378 248° West 431 496 38,000  Level Albuquerque Center
10:26AM 36.9431 -103.4922 248° West 428 493 38,000  Level Albuquerque Center
10:27AM 36.9019 -103.6228 249° West 422 486 38,000  Level Albuquerque Center
10:28AM 36.8603 -103.7533 248° West 421 484 38,000  Level Albuquerque Center
10:29AM 36.8131 -103.9047 249° West 419 482 38,000  Level Albuquerque Center
10:30AM 36.7708 -104.0328 248° West 417 480 38,000  Level Albuquerque Center
10:31AM 36.7225 -104.1814 248° West 414 476 38,000  Level Albuquerque Center
10:32AM 36.6803 -104.3094 248° West 415 478 38,000  Level Albuquerque Center
10:33AM 36.6322 -104.4525 247° West 415 478 38,000  Level Albuquerque Center
10:34AM 36.5869 -104.5886 248° West 419 482 38,000  Level Albuquerque Center
10:35AM 36.5433 -104.7244 248° West 422 486 38,000  Level Albuquerque Center
10:36AM 36.4983 -104.8586 247° West 420 483 38,000  Level Albuquerque Center
10:37AM 36.4536 -104.9931 248° West 420 483 38,000  Level Albuquerque Center
10:38AM 36.4086 -105.1286 248° West 421 484 38,000  Level Albuquerque Center
10:39AM 36.3608 -105.2667 247° West 429 494 38,000  Level Albuquerque Center
10:40AM 36.3167 -105.4008 248° West 423 487 38,000  Level Albuquerque Center
10:41AM 36.2653 -105.5500 247° West 421 484 38,000  Level Albuquerque Center
10:42AM 36.2203 -105.6822 247° West 420 483 38,000  Level Albuquerque Center
10:43AM 36.1756 -105.8156 247° West 420 483 38,000  Level Albuquerque Center
10:44AM 36.1306 -105.9467 247° West 418 481 38,000  Level Albuquerque Center
10:45AM 36.0853 -106.0789 247° West 419 482 38,000  Level Albuquerque Center
10:46AM 36.0303 -106.2361 247° West 419 482 38,000  Level Albuquerque Center
10:47AM 35.9858 -106.3667 247° West 417 480 38,000  Level Albuquerque Center
10:48AM 35.9403 -106.4969 247° West 417 480 38,000  Level Albuquerque Center
10:49AM 35.8914 -106.6319 246° West 418 481 38,000  Level Albuquerque Center
10:50AM 35.8392 -106.7786 246° West 419 482 38,000  Level Albuquerque Center
10:51AM 35.7947 -106.9047 247° West 419 482 38,000  Level Albuquerque Center
10:52AM 35.7500 -107.0303 246° West 418 481 38,000  Level Albuquerque Center
10:53AM 35.6981 -107.1767 246° West 418 481 38,000  Level Albuquerque Center
10:54AM 35.6539 -107.3017 247° West 417 480 38,000 -420 Level Albuquerque Center
10:55AM 35.6019 -107.4475 246° West 416 479 37,200 -660 Descending Albuquerque Center
10:56AM 35.5556 -107.5736 246° West 419 482 36,700 -600 Descending Albuquerque Center
10:57AM 35.5011 -107.7222 246° West 425 489 36,000 -360 Descending Albuquerque Center
10:58AM 35.4556 -107.8472 246° West 421 484 36,000  Level Albuquerque Center
10:59AM 35.4322 -107.9961 259° West 410 472 36,000  Level Albuquerque Center
11:01AM 35.4344 -108.1239 271° West 399 459 36,000 -60 Level Albuquerque Center
11:02AM 35.3850 -108.2486 244° Southwest 412 474 35,900 -600 Descending Albuquerque Center
11:03AM 35.3242 -108.3972 243° Southwest 428 493 34,800 -1,020 Descending Albuquerque Center
11:04AM 35.2708 -108.5256 243° Southwest 436 502 33,900 -960 Descending Albuquerque Center
11:05AM 35.2094 -108.6753 243° Southwest 438 504 32,900 -1,020 Descending Albuquerque Center
11:06AM 35.1547 -108.8064 243° Southwest 444 511 31,900 -1,020 Descending Albuquerque Center
11:07AM 35.0900 -108.9594 243° Southwest 450 518 30,900 -960 Descending Albuquerque Center
11:08AM 35.0347 -109.0886 242° Southwest 449 517 30,000 -480 Descending Albuquerque Center
11:09AM 34.9806 -109.2189 243° Southwest 449 517 30,000  Level Albuquerque Center
11:10AM 34.9156 -109.3703 242° Southwest 449 517 30,000  Level Albuquerque Center
11:11AM 34.8600 -109.4986 242° Southwest 449 517 30,000  Level Albuquerque Center
11:12AM 34.7964 -109.6500 243° Southwest 449 517 30,000  Level Albuquerque Center
11:13AM 34.7408 -109.7819 243° Southwest 453 521 30,000  Level Albuquerque Center
11:14AM 34.6786 -109.9339 244° Southwest 451 519 30,000  Level Albuquerque Center
11:15AM 34.6286 -110.0683 246° West 454 522 30,000  Level Albuquerque Center
11:16AM 34.5747 -110.2325 248° West 464 534 30,000  Level Albuquerque Center
11:17AM 34.5214 -110.3528 242° Southwest 435 501 30,000  Level Albuquerque Center
11:18AM 34.4831 -110.4719 249° West 421 484 30,000  Level Albuquerque Center
11:19AM 34.4264 -110.6206 245° Southwest 410 472 30,000 -540 Level Albuquerque Center
11:20AM 34.3753 -110.7417 243° Southwest 406 467 29,000 -1,200 Descending Albuquerque Center
11:21AM 34.3117 -110.8503 235° Southwest 400 460 27,600 -1,800 Descending Albuquerque Center
11:22AM 34.2378 -110.9478 228° Southwest 395 455 25,400 -2,100 Descending Albuquerque Center
11:23AM 34.1647 -111.0414 227° Southwest 386 444 23,300 -2,040 Descending Albuquerque Center
11:24AM 34.0939 -111.1328 227° Southwest 378 435 21,300 -2,220 Descending Albuquerque Center
11:25AM 34.0111 -111.2394 227° Southwest 367 422 18,800 -2,160 Descending Albuquerque Center
11:26AM 33.9442 -111.3253 227° Southwest 354 407 16,900 -1,560 Descending Albuquerque Center
11:27AM 33.8786 -111.4106 227° Southwest 346 398 15,600 -1,440 Descending Albuquerque Center
11:28AM 33.8308 -111.4992 237° Southwest 317 365 14,000 -1,620 Descending Albuquerque Center
11:29AM 33.7853 -111.5883 238° Southwest 312 359 12,300 -1,680 Descending Albuquerque Center
11:30AM 33.7389 -111.6756 237° Southwest 307 353 10,600 -1,140 Descending Albuquerque Center
11:31AM 33.6928 -111.7600 237° Southwest 302 348 10,000 -480 Descending Albuquerque Center
11:33AM 33.6503 -111.8375 237° Southwest 280 322 9,700 -540 Descending Albuquerque Center
11:34AM 33.6056 -111.9200 237° Southwest 249 287 9,000 -660 Descending Albuquerque Center
11:35AM 33.5692 -111.9894 238° Southwest 246 283 8,400 -900 Descending Albuquerque Center
11:36AM 33.5336 -112.0583 238° Southwest 243 280 7,200 -840 Descending Albuquerque Center
11:37AM 33.5253 -112.1286 262° West 217 250 6,700 -780 Descending Albuquerque Center
11:38AM 33.5253 -112.1953 270° West 202 232 5,700 -1,020 Descending Albuquerque Center
11:39AM 33.4928 -112.2278 220° Southwest 192 221 4,600 -1,020 Descending Albuquerque Center
11:40AM 33.4500 -112.1950 147° Southeast 172 198 3,700 -780 Descending Albuquerque Center
11:41AM 33.4419 -112.1447 101° East 157 181 3,100 -720 Descending Albuquerque Center
11:42AM 33.4333 -112.1000 103° East 151 174 2,300 -840 Descending Phoenix TRACON
11:43AM 33.4333 -112.0500 90° East 127 146 1,500 -840 Descending Phoenix TRACON